Time;durP1;ratioP1;P1;durP2;ratioP2;P2;SDS_P1;SDS_P2;PMS_P1;PMS_P2;Temp;Humidity;BMP_temperature;BMP_pressure;BME280_temperature;BME280_humidity;BME280_pressure;Samples;Min_cycle;Max_cycle;Signal;HPM_P1;HPM_P2
2022/03/31 00:04:39;;;;;;;9.35;3.72;;;4.60;99.90;;;;;;12430950;28;20041;-80
2022/03/31 00:10:49;;;;;;;;;;;4.60;99.90;;;;;;12435207;28;21019;-80
2022/03/31 00:16:51;;;;;;;9.43;3.65;;;4.60;99.90;;;;;;12441345;28;19932;-81
2022/03/31 00:22:54;;;;;;;8.75;3.30;;;4.50;99.90;;;;;;12437000;28;20041;-80
2022/03/31 00:28:56;;;;;;;11.05;3.20;;;4.50;99.90;;;;;;12434511;28;20050;-80
2022/03/31 00:34:58;;;;;;;9.52;3.47;;;4.60;99.90;;;;;;12433053;28;20136;-80
2022/03/31 00:41:00;;;;;;;8.52;3.42;;;4.60;99.90;;;;;;12446670;28;20529;-79
2022/03/31 00:47:03;;;;;;;10.52;3.58;;;4.80;99.90;;;;;;12436421;28;20408;-80
2022/03/31 00:53:05;;;;;;;9.70;3.35;;;4.80;99.90;;;;;;12431505;28;20579;-81
2022/03/31 00:59:27;;;;;;;7.93;3.45;;;4.70;99.90;;;;;;12428072;28;20057;-81
2022/03/31 01:05:29;;;;;;;10.32;3.50;;;4.70;99.90;;;;;;12425695;28;20041;-79
2022/03/31 01:11:31;;;;;;;8.05;3.53;;;4.70;99.90;;;;;;12430820;28;20050;-80
2022/03/31 01:17:34;;;;;;;9.25;3.13;;;4.70;99.90;;;;;;12430062;28;20108;-79
2022/03/31 01:23:37;;;;;;;9.68;4.07;;;4.70;99.90;;;;;;12425262;28;20134;-80
2022/03/31 01:29:38;;;;;;;9.65;3.40;;;4.80;99.90;;;;;;12433082;28;20065;-81
2022/03/31 01:35:41;;;;;;;7.90;3.25;;;4.90;99.90;;;;;;12426578;28;20053;-79
2022/03/31 01:41:44;;;;;;;9.63;3.70;;;4.80;99.90;;;;;;12427505;28;20049;-80
2022/03/31 01:47:46;;;;;;;11.32;3.72;;;4.90;99.90;;;;;;12433229;28;20045;-80
2022/03/31 01:53:48;;;;;;;10.02;3.90;;;4.60;99.90;;;;;;12430262;28;20049;-80
2022/03/31 01:59:50;;;;;;;7.68;3.65;;;4.50;99.90;;;;;;12437331;28;20085;-81
2022/03/31 02:05:52;;;;;;;11.60;3.67;;;4.80;99.90;;;;;;12456866;28;20843;-81
2022/03/31 02:11:53;;;;;;;12.52;3.55;;;4.90;99.90;;;;;;12456590;28;20842;-81
2022/03/31 02:17:56;;;;;;;7.85;3.33;;;4.90;99.90;;;;;;12422754;28;20073;-81
2022/03/31 02:23:58;;;;;;;9.77;3.90;;;4.90;99.90;;;;;;12423848;28;20053;-79
2022/03/31 02:30:00;;;;;;;8.52;4.00;;;4.90;99.90;;;;;;12430565;28;20072;-81
2022/03/31 02:36:01;;;;;;;9.27;3.92;;;4.80;99.90;;;;;;12424129;28;20085;-80
2022/03/31 02:42:04;;;;;;;7.57;3.58;;;4.90;99.90;;;;;;12426065;28;20438;-79
2022/03/31 02:48:05;;;;;;;9.43;4.22;;;4.80;99.90;;;;;;12428663;28;20483;-79
2022/03/31 03:00:34;;;;;;;12.07;4.43;;;4.80;99.90;;;;;;12423062;28;20046;-80
2022/03/31 03:06:37;;;;;;;9.93;4.30;;;4.60;99.90;;;;;;12427225;28;20049;-81
2022/03/31 03:12:41;;;;;;;13.63;4.57;;;4.60;99.90;;;;;;12435195;28;20062;-80
2022/03/31 03:18:42;;;;;;;8.35;4.18;;;4.50;99.90;;;;;;12444274;28;20460;-81
2022/03/31 03:24:44;;;;;;;9.73;4.40;;;4.50;99.90;;;;;;12440117;28;20087;-81
2022/03/31 03:30:46;;;;;;;10.32;4.82;;;4.40;99.90;;;;;;12440864;28;20045;-81
2022/03/31 03:36:48;;;;;;;10.23;4.65;;;4.60;99.90;;;;;;12434603;28;20058;-80
2022/03/31 03:42:50;;;;;;;8.32;4.25;;;4.40;99.90;;;;;;12434607;28;20420;-81
2022/03/31 03:48:51;;;;;;;13.93;4.82;;;4.30;99.90;;;;;;12447049;28;20049;-79
2022/03/31 03:54:53;;;;;;;9.55;4.50;;;4.40;99.90;;;;;;12419752;28;20049;-81
2022/03/31 04:00:55;;;;;;;10.25;5.50;;;4.40;99.90;;;;;;12426231;28;20096;-81
2022/03/31 04:06:58;;;;;;;14.45;5.85;;;4.40;99.90;;;;;;12433696;28;20057;-79
2022/03/31 04:13:00;;;;;;;11.10;5.18;;;4.40;99.90;;;;;;12432448;28;20080;-81
2022/03/31 04:19:05;;;;;;;20.40;6.07;;;4.50;99.90;;;;;;12431093;28;20168;-79
2022/03/31 04:25:08;;;;;;;14.13;6.15;;;4.40;99.90;;;;;;12426994;28;20072;-79
2022/03/31 04:31:10;;;;;;;12.00;6.50;;;4.50;99.90;;;;;;12428016;28;20137;-80
2022/03/31 04:37:12;;;;;;;13.57;6.75;;;4.40;99.90;;;;;;12435636;28;20053;-80
2022/03/31 04:43:14;;;;;;;12.82;6.15;;;4.40;99.90;;;;;;12429086;28;20862;-81
2022/03/31 04:49:15;;;;;;;13.32;6.18;;;4.40;99.90;;;;;;12436648;28;20116;-80
2022/03/31 04:55:17;;;;;;;13.93;6.85;;;4.40;99.90;;;;;;12432853;28;20061;-81
2022/03/31 05:01:21;;;;;;;15.88;7.18;;;4.50;99.90;;;;;;12430721;28;20100;-81
2022/03/31 05:07:24;;;;;;;15.23;6.28;;;4.60;99.90;;;;;;12443947;28;20054;-82
2022/03/31 05:13:26;;;;;;;17.77;7.78;;;4.50;99.90;;;;;;12443866;28;20509;-82
2022/03/31 05:19:28;;;;;;;15.18;7.18;;;4.40;99.90;;;;;;12430069;28;20140;-81
2022/03/31 05:25:30;;;;;;;19.15;7.40;;;4.40;99.90;;;;;;12431500;28;20881;-81
2022/03/31 05:31:32;;;;;;;15.57;7.65;;;4.40;99.90;;;;;;12424716;28;20572;-81
2022/03/31 05:37:34;;;;;;;16.88;7.93;;;4.40;99.90;;;;;;12418617;28;20050;-81
2022/03/31 05:43:36;;;;;;;20.33;8.52;;;4.40;99.90;;;;;;12426251;28;20104;-80
2022/03/31 05:49:37;;;;;;;18.27;8.00;;;4.40;99.90;;;;;;12428412;28;20088;-81
2022/03/31 05:55:43;;;;;;;17.13;7.85;;;4.50;99.90;;;;;;12432570;28;20095;-82
2022/03/31 06:01:45;;;;;;;18.35;8.45;;;4.80;99.90;;;;;;12426397;28;20506;-81
2022/03/31 06:07:50;;;;;;;19.70;8.70;;;4.60;99.90;;;;;;12422824;28;20049;-81
2022/03/31 06:13:52;;;;;;;27.52;10.45;;;4.70;99.90;;;;;;12426723;28;20094;-81
2022/03/31 06:19:54;;;;;;;18.58;9.43;;;4.60;99.90;;;;;;12434422;28;20072;-81
2022/03/31 06:25:56;;;;;;;19.60;9.93;;;4.80;99.90;;;;;;12427607;28;20045;-81
2022/03/31 06:31:58;;;;;;;22.27;10.38;;;4.90;99.90;;;;;;12450553;28;20049;-82
2022/03/31 06:38:00;;;;;;;24.02;11.52;;;4.90;99.90;;;;;;12442730;28;20065;-80
2022/03/31 06:44:02;;;;;;;18.67;10.35;;;5.20;99.90;;;;;;12420842;28;20045;-81
2022/03/31 06:50:04;;;;;;;18.95;10.73;;;5.50;99.90;;;;;;12422557;28;20053;-81
2022/03/31 06:56:08;;;;;;;20.90;11.27;;;5.60;99.90;;;;;;12428514;28;20115;-81
2022/03/31 07:02:10;;;;;;;32.43;19.60;;;5.60;99.90;;;;;;12426006;28;20054;-80
2022/03/31 07:08:11;;;;;;;35.92;20.88;;;5.40;99.90;;;;;;12426539;28;20330;-80
2022/03/31 07:14:14;;;;;;;39.20;21.95;;;5.20;99.90;;;;;;12426625;28;20119;-81
2022/03/31 07:20:16;;;;;;;41.63;21.10;;;5.10;99.90;;;;;;12442185;28;20674;-82
2022/03/31 07:26:18;;;;;;;35.05;19.25;;;5.20;99.90;;;;;;12425804;28;20103;-80
2022/03/31 07:32:20;;;;;;;34.53;18.30;;;5.50;99.90;;;;;;12423091;28;20045;-80
2022/03/31 07:38:22;;;;;;;32.10;18.25;;;5.60;99.90;;;;;;12425812;28;20058;-81
2022/03/31 07:44:24;;;;;;;33.47;18.17;;;5.60;99.90;;;;;;12421174;28;20093;-82
2022/03/31 07:50:26;;;;;;;31.90;19.02;;;5.80;99.90;;;;;;12428893;28;20474;-80
2022/03/31 07:56:28;;;;;;;30.92;19.00;;;6.10;99.90;;;;;;12435037;28;20114;-80
2022/03/31 08:02:30;;;;;;;35.17;20.10;;;6.40;99.90;;;;;;12428837;28;20046;-82
2022/03/31 08:08:31;;;;;;;34.67;20.10;;;6.30;99.90;;;;;;12441771;28;20045;-82
2022/03/31 08:14:33;;;;;;;29.52;18.98;;;6.20;99.90;;;;;;12431743;28;20470;-82
2022/03/31 08:20:35;;;;;;;31.25;18.30;;;6.30;99.90;;;;;;12440829;28;20053;-80
2022/03/31 08:26:37;;;;;;;22.98;14.55;;;6.30;99.90;;;;;;12435190;28;20050;-82
2022/03/31 08:32:42;;;;;;;19.95;12.18;;;6.30;99.90;;;;;;12429252;28;20453;-82
2022/03/31 08:38:44;;;;;;;;;;;6.30;99.90;;;;;;12431671;28;20613;-82
2022/03/31 08:44:50;;;;;;;23.17;11.95;;;6.40;99.90;;;;;;12431922;28;19932;-82
2022/03/31 08:50:53;;;;;;;17.55;10.30;;;6.20;99.90;;;;;;12433710;28;20080;-80
2022/03/31 08:56:55;;;;;;;16.20;10.73;;;6.20;99.90;;;;;;12434386;28;20050;-81
2022/03/31 09:03:17;;;;;;;21.33;10.73;;;6.00;99.90;;;;;;12426892;28;20498;-81
2022/03/31 09:09:22;;;;;;;16.40;10.27;;;6.00;99.90;;;;;;12446194;28;20050;-80
2022/03/31 09:15:24;;;;;;;17.33;10.70;;;6.00;99.90;;;;;;12445622;28;20426;-80
2022/03/31 09:21:26;;;;;;;19.02;11.93;;;6.10;99.90;;;;;;12431674;28;20099;-80
2022/03/31 09:27:28;;;;;;;19.30;12.15;;;6.60;99.90;;;;;;12423830;28;20095;-80
2022/03/31 09:33:36;;;;;;;18.08;11.98;;;7.20;99.90;;;;;;12420500;28;20112;-81
2022/03/31 09:39:39;;;;;;;21.02;12.88;;;7.10;99.90;;;;;;12431991;28;20124;-81
2022/03/31 09:45:41;;;;;;;22.23;13.30;;;7.10;99.90;;;;;;12428709;28;20042;-82
2022/03/31 09:51:45;;;;;;;21.58;14.52;;;6.90;99.90;;;;;;12431510;28;20050;-81
2022/03/31 09:57:47;;;;;;;19.83;13.40;;;6.70;99.90;;;;;;12437380;28;20544;-82
2022/03/31 10:03:54;;;;;;;21.85;13.75;;;6.60;99.90;;;;;;12430034;28;20112;-82
2022/03/31 10:09:56;;;;;;;22.95;14.10;;;6.70;99.90;;;;;;12428012;28;20046;-82
2022/03/31 10:16:08;;;;;;;19.63;12.85;;;6.70;99.90;;;;;;12427326;28;20076;-82
2022/03/31 10:28:37;;;;;;;21.77;12.32;;;7.20;99.90;;;;;;12428688;28;20121;-82
2022/03/31 10:34:44;;;;;;;17.05;11.55;;;7.10;99.90;;;;;;12444400;28;20053;-82
2022/03/31 10:40:51;;;;;;;18.00;11.10;;;6.80;99.90;;;;;;12427666;28;20552;-80
2022/03/31 10:47:08;;;;;;;24.95;11.13;;;6.90;99.90;;;;;;12432824;28;20054;-84
2022/03/31 10:53:10;;;;;;;20.13;11.45;;;6.70;99.90;;;;;;12428305;28;20065;-81
2022/03/31 10:59:15;;;;;;;21.52;11.77;;;6.80;99.90;;;;;;12425348;28;20796;-81
2022/03/31 11:05:22;;;;;;;18.83;11.63;;;6.90;99.90;;;;;;12423979;28;20127;-80
2022/03/31 11:11:29;;;;;;;14.98;10.60;;;7.00;99.90;;;;;;12428262;28;20080;-80
2022/03/31 11:17:31;;;;;;;17.08;11.60;;;7.30;99.90;;;;;;12424374;28;20050;-81
2022/03/31 11:23:33;;;;;;;16.90;11.43;;;7.20;99.90;;;;;;12426497;28;20053;-82
2022/03/31 11:29:35;;;;;;;18.90;11.25;;;7.00;99.90;;;;;;12423984;28;20425;-82
2022/03/31 11:35:37;;;;;;;18.27;10.38;;;6.90;99.90;;;;;;12426576;28;20780;-82
2022/03/31 11:41:41;;;;;;;15.10;11.18;;;6.60;99.90;;;;;;12437884;28;20417;-82
2022/03/31 11:47:59;;;;;;;18.20;12.38;;;6.60;99.90;;;;;;12439426;28;20089;-80
2022/03/31 11:54:08;;;;;;;18.77;12.73;;;6.70;99.90;;;;;;12447267;28;20116;-80
2022/03/31 12:00:12;;;;;;;21.00;12.95;;;6.90;99.90;;;;;;12435020;28;20107;-80
2022/03/31 12:06:16;;;;;;;21.88;13.73;;;6.80;99.90;;;;;;12432745;28;20045;-80
2022/03/31 12:12:18;;;;;;;20.60;13.90;;;6.60;99.90;;;;;;12447027;28;20053;-80
2022/03/31 12:18:20;;;;;;;22.48;14.48;;;6.40;99.90;;;;;;12429572;28;20497;-81
2022/03/31 12:24:22;;;;;;;23.90;13.65;;;6.20;99.90;;;;;;12434010;28;20091;-79
2022/03/31 12:30:24;;;;;;;17.63;12.20;;;6.40;99.90;;;;;;12433684;28;20096;-80
2022/03/31 12:36:28;;;;;;;17.42;11.27;;;6.40;99.90;;;;;;12428795;28;20161;-82
2022/03/31 12:42:30;;;;;;;;;;;6.30;99.90;;;;;;12428243;28;20041;-82
2022/03/31 12:48:32;;;;;;;15.25;8.70;;;6.20;99.90;;;;;;12431151;28;20274;-81
2022/03/31 12:54:36;;;;;;;13.43;8.20;;;6.20;99.90;;;;;;12431978;28;20493;-82
2022/03/31 13:00:38;;;;;;;11.73;8.30;;;6.20;99.90;;;;;;12426905;28;20052;-82
2022/03/31 13:06:40;;;;;;;15.23;8.10;;;6.40;99.90;;;;;;12427897;28;20476;-81
2022/03/31 13:12:42;;;;;;;16.60;7.60;;;6.40;99.90;;;;;;12429580;28;20038;-81
2022/03/31 13:18:44;;;;;;;9.95;6.63;;;6.40;99.90;;;;;;12428204;28;20469;-82
2022/03/31 13:24:54;;;;;;;11.73;6.95;;;6.60;99.90;;;;;;12430713;28;20046;-81
2022/03/31 13:30:55;;;;;;;10.98;6.50;;;6.70;99.90;;;;;;12436053;28;20442;-80
2022/03/31 13:37:01;;;;;;;10.45;6.55;;;6.60;99.90;;;;;;12440761;28;20122;-82
2022/03/31 13:43:06;;;;;;;10.98;6.00;;;6.70;99.90;;;;;;12434093;28;20103;-81
2022/03/31 13:49:09;;;;;;;9.43;5.50;;;6.80;99.90;;;;;;12425489;28;20053;-80
2022/03/31 13:55:11;;;;;;;15.77;5.00;;;6.90;99.90;;;;;;12429334;28;20507;-80
2022/03/31 14:01:13;;;;;;;10.02;4.65;;;6.90;99.90;;;;;;12419284;28;20580;-81
2022/03/31 14:07:15;;;;;;;11.68;4.20;;;6.60;99.90;;;;;;12448864;28;20104;-80
2022/03/31 14:13:17;;;;;;;10.77;3.95;;;6.70;99.90;;;;;;12424829;28;20549;-80
2022/03/31 14:19:21;;;;;;;7.82;4.20;;;6.60;99.90;;;;;;12425198;28;20069;-80
2022/03/31 14:25:23;;;;;;;13.73;5.05;;;6.70;99.90;;;;;;12427098;28;20048;-80
2022/03/31 14:31:25;;;;;;;7.43;3.45;;;6.60;99.90;;;;;;12428253;28;20042;-81
2022/03/31 14:37:37;;;;;;;7.18;3.03;;;6.60;99.90;;;;;;12431185;28;20496;-80
2022/03/31 14:43:48;;;;;;;7.80;3.60;;;6.50;99.90;;;;;;12424112;28;20240;-81
2022/03/31 14:49:50;;;;;;;8.65;3.72;;;6.40;99.90;;;;;;12426558;28;20087;-81
2022/03/31 14:55:52;;;;;;;7.20;3.42;;;6.50;99.90;;;;;;12431734;28;20049;-80
2022/03/31 15:01:54;;;;;;;8.38;3.38;;;6.40;99.90;;;;;;12433646;28;20096;-82
2022/03/31 15:07:58;;;;;;;6.22;3.42;;;6.40;99.90;;;;;;12426044;28;20120;-82
2022/03/31 15:20:20;;;;;;;10.63;4.10;;;6.20;99.90;;;;;;12445583;28;20046;-79
2022/03/31 15:26:23;;;;;;;8.50;3.45;;;6.10;99.90;;;;;;12436418;28;20050;-81
2022/03/31 15:32:26;;;;;;;10.93;3.67;;;5.90;99.90;;;;;;12433802;28;20121;-80
2022/03/31 15:38:28;;;;;;;8.18;3.60;;;6.00;99.90;;;;;;12431600;28;20045;-80
2022/03/31 15:44:31;;;;;;;13.38;4.25;;;5.90;99.90;;;;;;12433317;28;20053;-81
2022/03/31 15:50:33;;;;;;;7.20;3.97;;;6.00;99.90;;;;;;12435611;28;20094;-80
2022/03/31 15:56:35;;;;;;;8.40;4.00;;;5.90;99.90;;;;;;12433688;28;20103;-79
2022/03/31 16:02:41;;;;;;;8.13;4.07;;;5.80;99.90;;;;;;12435850;28;20046;-81
2022/03/31 16:08:43;;;;;;;7.35;4.03;;;5.90;99.90;;;;;;12439744;28;20053;-80
2022/03/31 16:14:45;;;;;;;8.35;4.65;;;5.60;99.90;;;;;;12435693;28;20825;-81
2022/03/31 16:20:47;;;;;;;9.68;4.28;;;5.40;99.90;;;;;;12435342;28;20103;-81
2022/03/31 16:26:49;;;;;;;10.38;4.75;;;5.10;99.90;;;;;;12438709;28;20050;-80
2022/03/31 16:32:51;;;;;;;8.35;4.10;;;4.90;99.90;;;;;;12437654;28;20754;-80
2022/03/31 16:38:52;;;;;;;7.85;4.40;;;4.80;99.90;;;;;;12448085;28;20125;-81
2022/03/31 16:44:54;;;;;;;8.20;4.30;;;4.70;99.90;;;;;;12449963;28;20559;-80
2022/03/31 16:50:56;;;;;;;10.20;4.40;;;4.50;99.90;;;;;;12429032;28;20498;-80
2022/03/31 16:56:58;;;;;;;7.93;4.28;;;4.30;99.90;;;;;;12436754;28;20491;-81
2022/03/31 17:03:01;;;;;;;7.25;3.90;;;4.10;99.90;;;;;;12428243;28;20049;-81
2022/03/31 17:09:03;;;;;;;9.48;4.65;;;4.00;99.90;;;;;;12429455;28;20740;-81
2022/03/31 17:15:06;;;;;;;8.20;4.22;;;3.90;99.90;;;;;;12428765;28;20112;-80
2022/03/31 17:21:08;;;;;;;10.05;4.55;;;3.90;99.90;;;;;;12424206;28;20049;-80
2022/03/31 17:27:12;;;;;;;13.18;4.60;;;3.80;99.90;;;;;;12426924;28;20107;-81
2022/03/31 17:33:15;;;;;;;9.50;4.60;;;3.60;99.90;;;;;;12425479;28;20044;-81
2022/03/31 17:39:16;;;;;;;11.95;5.10;;;3.50;99.90;;;;;;12428565;28;20054;-79
2022/03/31 17:45:20;;;;;;;7.93;5.18;;;3.30;99.90;;;;;;12427528;28;20069;-82
2022/03/31 17:51:22;;;;;;;8.45;5.40;;;3.30;99.90;;;;;;12432834;28;20140;-80
2022/03/31 17:57:23;;;;;;;7.38;5.00;;;3.20;99.90;;;;;;12426100;28;20076;-79
2022/03/31 18:03:25;;;;;;;8.82;5.30;;;3.20;99.90;;;;;;12426312;28;20537;-81
2022/03/31 18:09:27;;;;;;;9.00;5.28;;;3.10;99.90;;;;;;12427033;28;20478;-81
2022/03/31 18:15:29;;;;;;;8.98;5.50;;;2.90;99.90;;;;;;12421723;28;20041;-81
2022/03/31 18:21:31;;;;;;;8.63;5.60;;;2.70;99.90;;;;;;12442339;28;20042;-81
2022/03/31 18:27:34;;;;;;;9.07;6.13;;;2.70;99.90;;;;;;12433580;28;20076;-81
2022/03/31 18:33:53;;;;;;;9.80;6.30;;;2.70;99.90;;;;;;12431799;28;20046;-81
2022/03/31 18:39:56;;;;;;;10.57;5.75;;;2.70;99.90;;;;;;12425954;28;20506;-81
2022/03/31 18:45:59;;;;;;;8.05;4.88;;;2.60;99.90;;;;;;12425292;28;20103;-80
2022/03/31 18:52:02;;;;;;;13.75;4.85;;;2.40;99.90;;;;;;12432712;28;20498;-80
2022/03/31 18:58:04;;;;;;;11.85;4.45;;;2.30;99.90;;;;;;12425463;28;20123;-79
2022/03/31 19:04:06;;;;;;;6.18;3.53;;;2.20;99.90;;;;;;12420941;28;20046;-79
2022/03/31 19:10:09;;;;;;;7.20;3.78;;;2.10;99.90;;;;;;12425411;28;20140;-79
2022/03/31 19:16:12;;;;;;;7.38;3.75;;;2.10;99.90;;;;;;12425365;28;20049;-79
2022/03/31 19:22:14;;;;;;;8.32;3.58;;;2.00;99.90;;;;;;12424136;28;20105;-80
2022/03/31 19:28:16;;;;;;;6.90;3.47;;;2.00;99.90;;;;;;12422696;28;20100;-81
2022/03/31 19:34:18;;;;;;;7.68;3.15;;;2.00;99.90;;;;;;12440660;28;20053;-80
2022/03/31 19:40:20;;;;;;;4.80;3.13;;;2.00;99.90;;;;;;12442711;28;20054;-81
2022/03/31 19:46:23;;;;;;;8.25;3.40;;;2.00;99.90;;;;;;12442424;28;20852;-82
2022/03/31 19:52:24;;;;;;;6.90;3.00;;;2.00;99.90;;;;;;12428347;28;20154;-81
2022/03/31 19:58:26;;;;;;;9.52;3.33;;;2.10;99.90;;;;;;12435028;28;20061;-81
2022/03/31 20:04:28;;;;;;;5.50;3.05;;;2.20;99.90;;;;;;12425901;28;20041;-81
2022/03/31 20:10:30;;;;;;;5.53;2.55;;;2.30;99.90;;;;;;12429389;28;20095;-79
2022/03/31 20:16:33;;;;;;;5.18;2.60;;;2.20;99.90;;;;;;12436788;28;20176;-79
2022/03/31 20:22:35;;;;;;;9.40;2.70;;;2.10;99.90;;;;;;12441471;28;20088;-79
2022/03/31 20:28:38;;;;;;;3.92;2.30;;;2.00;99.90;;;;;;12430240;28;20122;-79
2022/03/31 20:34:40;;;;;;;6.00;2.78;;;2.10;99.90;;;;;;12424348;28;20050;-81
2022/03/31 20:40:43;;;;;;;9.10;2.90;;;2.00;99.90;;;;;;12431377;28;20490;-79
2022/03/31 20:46:45;;;;;;;7.95;2.67;;;2.10;99.90;;;;;;12429111;28;20042;-81
2022/03/31 20:52:47;;;;;;;5.97;2.80;;;2.20;99.90;;;;;;12431135;28;20046;-80
2022/03/31 20:58:49;;;;;;;5.15;2.42;;;2.10;99.90;;;;;;12438382;28;20077;-81
2022/03/31 21:04:51;;;;;;;5.90;2.88;;;2.10;99.90;;;;;;12426738;28;20072;-79
2022/03/31 21:10:53;;;;;;;5.03;2.60;;;2.00;99.90;;;;;;12438454;28;20051;-79
2022/03/31 21:16:56;;;;;;;7.65;2.50;;;2.00;99.90;;;;;;12454671;28;20700;-79
2022/03/31 21:22:59;;;;;;;8.13;2.97;;;2.00;99.90;;;;;;12437876;28;20514;-79
2022/03/31 21:29:00;;;;;;;4.72;2.55;;;1.90;99.90;;;;;;12426881;28;20099;-79
2022/03/31 21:35:04;;;;;;;9.50;2.90;;;1.90;99.90;;;;;;12428818;28;20061;-79
2022/03/31 21:41:06;;;;;;;5.50;2.30;;;1.90;99.90;;;;;;12432548;28;20053;-80
2022/03/31 21:47:08;;;;;;;5.00;2.30;;;1.80;99.90;;;;;;12424271;28;20103;-79
2022/03/31 21:53:10;;;;;;;3.30;2.15;;;1.80;99.90;;;;;;12432626;28;20516;-79
2022/03/31 21:59:13;;;;;;;7.55;2.40;;;1.90;99.90;;;;;;12429612;28;20054;-80
2022/03/31 22:05:15;;;;;;;8.20;2.38;;;1.70;99.90;;;;;;12429371;28;20118;-79
2022/03/31 22:11:36;;;;;;;5.88;2.38;;;1.40;99.90;;;;;;12427867;28;20077;-80
2022/03/31 22:17:39;;;;;;;9.60;2.42;;;1.20;99.90;;;;;;12428179;28;20057;-80
2022/03/31 22:23:41;;;;;;;6.95;2.38;;;1.20;99.90;;;;;;12430282;28;20050;-80
2022/03/31 22:29:52;;;;;;;7.55;2.42;;;1.10;99.90;;;;;;12429846;28;20058;-80
2022/03/31 22:35:54;;;;;;;5.47;2.20;;;1.30;99.90;;;;;;12421938;28;20100;-80
2022/03/31 22:41:56;;;;;;;5.25;2.30;;;1.20;99.90;;;;;;12423794;28;20821;-79
2022/03/31 22:47:58;;;;;;;5.10;2.58;;;1.10;99.90;;;;;;12424558;28;20053;-79
2022/03/31 22:54:01;;;;;;;5.18;2.55;;;1.10;99.90;;;;;;12434726;28;20104;-80
2022/03/31 23:00:04;;;;;;;5.70;3.10;;;1.10;99.90;;;;;;12443674;28;20068;-79
2022/03/31 23:06:07;;;;;;;6.72;3.05;;;1.00;99.90;;;;;;12426894;28;20526;-80
2022/03/31 23:12:09;;;;;;;5.23;2.60;;;0.90;99.90;;;;;;12424402;28;20092;-80
2022/03/31 23:18:16;;;;;;;5.60;3.17;;;1.00;99.90;;;;;;12427276;28;20954;-80
2022/03/31 23:24:18;;;;;;;7.57;2.85;;;0.90;99.90;;;;;;12428371;28;20053;-80
2022/03/31 23:30:20;;;;;;;5.28;2.90;;;0.90;99.90;;;;;;12427869;28;20125;-79
2022/03/31 23:36:22;;;;;;;4.40;3.10;;;0.80;99.90;;;;;;12434691;28;20871;-79
2022/03/31 23:42:25;;;;;;;6.68;3.25;;;0.80;99.90;;;;;;12438863;28;20164;-81
2022/03/31 23:48:27;;;;;;;7.22;3.30;;;0.80;99.90;;;;;;12438245;28;20046;-81
2022/03/31 23:54:29;;;;;;;5.82;3.17;;;0.80;99.90;;;;;;12435257;28;20099;-81
